sensor_id;sensor_type;location;lat;lon;timestamp;P1;durP1;ratioP1;P2;durP2;ratioP2
5428;SDS011;2737;52.386;9.980;2022-12-07T00:01:47;43.40;;;19.77;;
5428;SDS011;2737;52.386;9.980;2022-12-07T00:04:16;36.07;;;18.87;;
5428;SDS011;2737;52.386;9.980;2022-12-07T00:06:45;45.30;;;19.63;;
5428;SDS011;2737;52.386;9.980;2022-12-07T00:09:14;41.77;;;20.10;;
5428;SDS011;2737;52.386;9.980;2022-12-07T00:11:42;43.07;;;20.80;;
5428;SDS011;2737;52.386;9.980;2022-12-07T00:14:11;46.87;;;19.60;;
5428;SDS011;2737;52.386;9.980;2022-12-07T00:16:39;44.10;;;20.40;;
5428;SDS011;2737;52.386;9.980;2022-12-07T00:19:06;42.80;;;20.33;;
5428;SDS011;2737;52.386;9.980;2022-12-07T00:21:35;42.83;;;20.17;;
5428;SDS011;2737;52.386;9.980;2022-12-07T00:24:02;49.60;;;20.40;;
5428;SDS011;2737;52.386;9.980;2022-12-07T00:26:31;42.60;;;21.10;;
5428;SDS011;2737;52.386;9.980;2022-12-07T00:29:01;43.80;;;19.70;;
5428;SDS011;2737;52.386;9.980;2022-12-07T00:31:31;41.63;;;20.33;;
5428;SDS011;2737;52.386;9.980;2022-12-07T00:34:01;43.33;;;20.60;;
5428;SDS011;2737;52.386;9.980;2022-12-07T00:36:28;43.50;;;19.87;;
5428;SDS011;2737;52.386;9.980;2022-12-07T00:38:57;44.53;;;21.53;;
5428;SDS011;2737;52.386;9.980;2022-12-07T00:41:26;48.80;;;21.47;;
5428;SDS011;2737;52.386;9.980;2022-12-07T00:43:54;42.23;;;21.03;;
5428;SDS011;2737;52.386;9.980;2022-12-07T00:46:22;43.07;;;21.80;;
5428;SDS011;2737;52.386;9.980;2022-12-07T00:48:49;43.33;;;20.53;;
5428;SDS011;2737;52.386;9.980;2022-12-07T00:51:18;48.43;;;21.00;;
5428;SDS011;2737;52.386;9.980;2022-12-07T00:53:47;43.73;;;20.53;;
5428;SDS011;2737;52.386;9.980;2022-12-07T00:56:17;40.93;;;20.30;;
5428;SDS011;2737;52.386;9.980;2022-12-07T00:58:48;43.93;;;20.90;;
5428;SDS011;2737;52.386;9.980;2022-12-07T01:01:16;48.40;;;21.83;;
5428;SDS011;2737;52.386;9.980;2022-12-07T01:03:43;52.47;;;21.60;;
5428;SDS011;2737;52.386;9.980;2022-12-07T01:06:13;43.73;;;20.07;;
5428;SDS011;2737;52.386;9.980;2022-12-07T01:08:41;49.23;;;21.17;;
5428;SDS011;2737;52.386;9.980;2022-12-07T01:11:09;50.40;;;21.80;;
5428;SDS011;2737;52.386;9.980;2022-12-07T01:13:41;51.63;;;21.60;;
5428;SDS011;2737;52.386;9.980;2022-12-07T01:16:09;47.33;;;21.83;;
5428;SDS011;2737;52.386;9.980;2022-12-07T01:18:38;47.13;;;20.13;;
5428;SDS011;2737;52.386;9.980;2022-12-07T01:21:05;47.50;;;21.83;;
5428;SDS011;2737;52.386;9.980;2022-12-07T01:23:35;59.60;;;24.07;;
5428;SDS011;2737;52.386;9.980;2022-12-07T01:26:04;48.00;;;20.97;;
5428;SDS011;2737;52.386;9.980;2022-12-07T01:28:33;44.73;;;22.10;;
5428;SDS011;2737;52.386;9.980;2022-12-07T01:31:02;46.50;;;21.30;;
5428;SDS011;2737;52.386;9.980;2022-12-07T01:33:32;58.47;;;21.20;;
5428;SDS011;2737;52.386;9.980;2022-12-07T01:36:01;42.53;;;20.27;;
5428;SDS011;2737;52.386;9.980;2022-12-07T01:38:29;43.67;;;21.13;;
5428;SDS011;2737;52.386;9.980;2022-12-07T01:40:57;47.00;;;21.30;;
5428;SDS011;2737;52.386;9.980;2022-12-07T01:43:26;50.43;;;21.93;;
5428;SDS011;2737;52.386;9.980;2022-12-07T01:45:54;51.43;;;23.03;;
5428;SDS011;2737;52.386;9.980;2022-12-07T01:48:24;49.07;;;22.90;;
5428;SDS011;2737;52.386;9.980;2022-12-07T01:50:55;47.37;;;22.43;;
5428;SDS011;2737;52.386;9.980;2022-12-07T01:53:26;44.80;;;21.33;;
5428;SDS011;2737;52.386;9.980;2022-12-07T01:55:55;43.40;;;22.37;;
5428;SDS011;2737;52.386;9.980;2022-12-07T01:58:24;49.50;;;22.70;;
5428;SDS011;2737;52.386;9.980;2022-12-07T02:00:52;49.47;;;21.60;;
5428;SDS011;2737;52.386;9.980;2022-12-07T02:03:19;46.77;;;22.53;;
5428;SDS011;2737;52.386;9.980;2022-12-07T02:05:51;44.93;;;21.83;;
5428;SDS011;2737;52.386;9.980;2022-12-07T02:08:20;44.90;;;22.83;;
5428;SDS011;2737;52.386;9.980;2022-12-07T02:10:47;48.30;;;23.30;;
5428;SDS011;2737;52.386;9.980;2022-12-07T02:13:15;47.57;;;22.73;;
5428;SDS011;2737;52.386;9.980;2022-12-07T02:15:49;38.77;;;20.77;;
5428;SDS011;2737;52.386;9.980;2022-12-07T02:18:31;45.30;;;21.40;;
5428;SDS011;2737;52.386;9.980;2022-12-07T02:21:11;39.43;;;20.63;;
5428;SDS011;2737;52.386;9.980;2022-12-07T02:23:46;46.20;;;22.30;;
5428;SDS011;2737;52.386;9.980;2022-12-07T02:26:38;40.23;;;20.10;;
5428;SDS011;2737;52.386;9.980;2022-12-07T02:29:23;44.63;;;21.60;;
5428;SDS011;2737;52.386;9.980;2022-12-07T02:31:55;47.40;;;21.90;;
5428;SDS011;2737;52.386;9.980;2022-12-07T02:34:32;51.97;;;21.00;;
5428;SDS011;2737;52.386;9.980;2022-12-07T02:37:09;46.97;;;21.33;;
5428;SDS011;2737;52.386;9.980;2022-12-07T02:39:44;45.50;;;21.37;;
5428;SDS011;2737;52.386;9.980;2022-12-07T02:42:19;40.47;;;21.40;;
5428;SDS011;2737;52.386;9.980;2022-12-07T02:44:54;44.73;;;20.77;;
5428;SDS011;2737;52.386;9.980;2022-12-07T02:47:22;43.23;;;21.00;;
5428;SDS011;2737;52.386;9.980;2022-12-07T02:49:51;43.10;;;19.07;;
5428;SDS011;2737;52.386;9.980;2022-12-07T02:52:18;41.10;;;20.30;;
5428;SDS011;2737;52.386;9.980;2022-12-07T02:54:45;35.63;;;18.77;;
5428;SDS011;2737;52.386;9.980;2022-12-07T02:57:25;41.23;;;19.70;;
5428;SDS011;2737;52.386;9.980;2022-12-07T03:00:14;40.03;;;19.80;;
5428;SDS011;2737;52.386;9.980;2022-12-07T03:02:48;34.00;;;18.70;;
5428;SDS011;2737;52.386;9.980;2022-12-07T03:05:23;41.67;;;19.67;;
5428;SDS011;2737;52.386;9.980;2022-12-07T03:08:00;38.63;;;18.73;;
5428;SDS011;2737;52.386;9.980;2022-12-07T03:10:33;43.27;;;20.23;;
5428;SDS011;2737;52.386;9.980;2022-12-07T03:13:07;42.40;;;19.23;;
5428;SDS011;2737;52.386;9.980;2022-12-07T03:15:46;41.80;;;18.77;;
5428;SDS011;2737;52.386;9.980;2022-12-07T03:18:20;37.60;;;17.80;;
5428;SDS011;2737;52.386;9.980;2022-12-07T03:20:51;37.50;;;18.07;;
5428;SDS011;2737;52.386;9.980;2022-12-07T03:23:21;41.93;;;18.97;;
5428;SDS011;2737;52.386;9.980;2022-12-07T03:25:52;36.10;;;18.10;;
5428;SDS011;2737;52.386;9.980;2022-12-07T03:28:25;34.53;;;17.87;;
5428;SDS011;2737;52.386;9.980;2022-12-07T03:30:57;35.67;;;16.80;;
5428;SDS011;2737;52.386;9.980;2022-12-07T03:33:28;36.20;;;19.70;;
5428;SDS011;2737;52.386;9.980;2022-12-07T03:35:59;36.77;;;17.30;;
5428;SDS011;2737;52.386;9.980;2022-12-07T03:38:32;30.90;;;17.43;;
5428;SDS011;2737;52.386;9.980;2022-12-07T03:41:04;37.87;;;18.73;;
5428;SDS011;2737;52.386;9.980;2022-12-07T03:43:35;33.30;;;17.83;;
5428;SDS011;2737;52.386;9.980;2022-12-07T03:46:06;33.77;;;15.87;;
5428;SDS011;2737;52.386;9.980;2022-12-07T03:48:46;34.20;;;17.50;;
5428;SDS011;2737;52.386;9.980;2022-12-07T03:51:22;35.47;;;17.10;;
5428;SDS011;2737;52.386;9.980;2022-12-07T03:53:57;31.33;;;17.03;;
5428;SDS011;2737;52.386;9.980;2022-12-07T03:56:31;35.53;;;16.50;;
5428;SDS011;2737;52.386;9.980;2022-12-07T03:59:00;35.07;;;17.40;;
5428;SDS011;2737;52.386;9.980;2022-12-07T04:01:28;33.40;;;15.47;;
5428;SDS011;2737;52.386;9.980;2022-12-07T04:03:55;30.63;;;16.60;;
5428;SDS011;2737;52.386;9.980;2022-12-07T04:06:22;32.40;;;15.90;;
5428;SDS011;2737;52.386;9.980;2022-12-07T04:08:49;30.43;;;15.50;;
5428;SDS011;2737;52.386;9.980;2022-12-07T04:11:16;31.10;;;15.60;;
5428;SDS011;2737;52.386;9.980;2022-12-07T04:13:43;30.20;;;13.50;;
5428;SDS011;2737;52.386;9.980;2022-12-07T04:16:29;24.23;;;13.50;;
5428;SDS011;2737;52.386;9.980;2022-12-07T04:18:56;26.07;;;13.70;;
5428;SDS011;2737;52.386;9.980;2022-12-07T04:21:23;21.30;;;12.27;;
5428;SDS011;2737;52.386;9.980;2022-12-07T04:23:50;31.47;;;14.10;;
5428;SDS011;2737;52.386;9.980;2022-12-07T04:26:17;26.20;;;14.00;;
5428;SDS011;2737;52.386;9.980;2022-12-07T04:28:44;25.20;;;12.00;;
5428;SDS011;2737;52.386;9.980;2022-12-07T04:31:11;23.90;;;12.00;;
5428;SDS011;2737;52.386;9.980;2022-12-07T04:33:39;24.90;;;12.30;;
5428;SDS011;2737;52.386;9.980;2022-12-07T04:36:07;26.67;;;12.80;;
5428;SDS011;2737;52.386;9.980;2022-12-07T04:38:34;28.03;;;13.03;;
5428;SDS011;2737;52.386;9.980;2022-12-07T04:41:04;26.73;;;12.30;;
5428;SDS011;2737;52.386;9.980;2022-12-07T04:43:32;20.60;;;12.13;;
5428;SDS011;2737;52.386;9.980;2022-12-07T04:45:59;30.13;;;12.93;;
5428;SDS011;2737;52.386;9.980;2022-12-07T04:48:26;31.17;;;13.50;;
5428;SDS011;2737;52.386;9.980;2022-12-07T04:50:54;29.67;;;12.90;;
5428;SDS011;2737;52.386;9.980;2022-12-07T04:53:21;26.83;;;12.40;;
5428;SDS011;2737;52.386;9.980;2022-12-07T04:55:48;31.63;;;14.30;;
5428;SDS011;2737;52.386;9.980;2022-12-07T04:58:15;24.63;;;12.20;;
5428;SDS011;2737;52.386;9.980;2022-12-07T05:00:42;28.10;;;12.80;;
5428;SDS011;2737;52.386;9.980;2022-12-07T05:03:09;23.43;;;11.90;;
5428;SDS011;2737;52.386;9.980;2022-12-07T05:05:39;25.73;;;12.90;;
5428;SDS011;2737;52.386;9.980;2022-12-07T05:08:08;27.20;;;12.70;;
5428;SDS011;2737;52.386;9.980;2022-12-07T05:10:35;23.83;;;11.50;;
5428;SDS011;2737;52.386;9.980;2022-12-07T05:13:02;20.67;;;11.50;;
5428;SDS011;2737;52.386;9.980;2022-12-07T05:15:29;22.93;;;10.70;;
5428;SDS011;2737;52.386;9.980;2022-12-07T05:17:56;19.03;;;9.23;;
5428;SDS011;2737;52.386;9.980;2022-12-07T05:20:23;17.30;;;10.60;;
5428;SDS011;2737;52.386;9.980;2022-12-07T05:22:50;24.07;;;11.07;;
5428;SDS011;2737;52.386;9.980;2022-12-07T05:25:18;19.67;;;9.70;;
5428;SDS011;2737;52.386;9.980;2022-12-07T05:27:45;17.90;;;9.70;;
5428;SDS011;2737;52.386;9.980;2022-12-07T05:30:13;20.30;;;10.00;;
5428;SDS011;2737;52.386;9.980;2022-12-07T05:32:40;22.50;;;10.80;;
5428;SDS011;2737;52.386;9.980;2022-12-07T05:35:07;22.73;;;10.40;;
5428;SDS011;2737;52.386;9.980;2022-12-07T05:37:35;20.77;;;10.83;;
5428;SDS011;2737;52.386;9.980;2022-12-07T05:40:02;24.40;;;10.90;;
5428;SDS011;2737;52.386;9.980;2022-12-07T05:42:31;21.93;;;11.30;;
5428;SDS011;2737;52.386;9.980;2022-12-07T05:44:58;30.90;;;12.03;;
5428;SDS011;2737;52.386;9.980;2022-12-07T05:47:25;20.67;;;10.10;;
5428;SDS011;2737;52.386;9.980;2022-12-07T05:49:52;26.03;;;11.20;;
5428;SDS011;2737;52.386;9.980;2022-12-07T05:52:19;23.77;;;10.80;;
5428;SDS011;2737;52.386;9.980;2022-12-07T05:54:47;21.23;;;9.53;;
5428;SDS011;2737;52.386;9.980;2022-12-07T05:57:14;18.70;;;9.70;;
5428;SDS011;2737;52.386;9.980;2022-12-07T05:59:42;23.43;;;10.10;;
5428;SDS011;2737;52.386;9.980;2022-12-07T06:02:09;20.30;;;9.40;;
5428;SDS011;2737;52.386;9.980;2022-12-07T06:04:38;14.10;;;7.40;;
5428;SDS011;2737;52.386;9.980;2022-12-07T06:07:11;20.17;;;8.77;;
5428;SDS011;2737;52.386;9.980;2022-12-07T06:09:39;16.87;;;8.37;;
5428;SDS011;2737;52.386;9.980;2022-12-07T06:12:08;15.07;;;8.67;;
5428;SDS011;2737;52.386;9.980;2022-12-07T06:14:54;21.43;;;7.93;;
5428;SDS011;2737;52.386;9.980;2022-12-07T06:17:22;17.30;;;7.50;;
5428;SDS011;2737;52.386;9.980;2022-12-07T06:19:49;20.73;;;7.70;;
5428;SDS011;2737;52.386;9.980;2022-12-07T06:22:16;12.90;;;7.03;;
5428;SDS011;2737;52.386;9.980;2022-12-07T06:24:43;16.47;;;7.73;;
5428;SDS011;2737;52.386;9.980;2022-12-07T06:27:11;15.73;;;7.40;;
5428;SDS011;2737;52.386;9.980;2022-12-07T06:29:38;16.17;;;7.60;;
5428;SDS011;2737;52.386;9.980;2022-12-07T06:32:07;14.67;;;8.07;;
5428;SDS011;2737;52.386;9.980;2022-12-07T06:34:34;16.10;;;8.40;;
5428;SDS011;2737;52.386;9.980;2022-12-07T06:37:01;26.70;;;8.60;;
5428;SDS011;2737;52.386;9.980;2022-12-07T06:39:28;20.50;;;7.90;;
5428;SDS011;2737;52.386;9.980;2022-12-07T06:41:55;28.43;;;9.07;;
5428;SDS011;2737;52.386;9.980;2022-12-07T06:44:23;17.63;;;7.90;;
5428;SDS011;2737;52.386;9.980;2022-12-07T06:46:51;14.80;;;7.37;;
5428;SDS011;2737;52.386;9.980;2022-12-07T06:49:19;16.03;;;6.40;;
5428;SDS011;2737;52.386;9.980;2022-12-07T06:51:47;19.87;;;8.00;;
5428;SDS011;2737;52.386;9.980;2022-12-07T06:54:14;22.90;;;7.60;;
5428;SDS011;2737;52.386;9.980;2022-12-07T06:56:43;22.00;;;6.40;;
5428;SDS011;2737;52.386;9.980;2022-12-07T06:59:10;17.30;;;7.27;;
5428;SDS011;2737;52.386;9.980;2022-12-07T07:01:37;20.87;;;7.07;;
5428;SDS011;2737;52.386;9.980;2022-12-07T07:04:04;15.40;;;7.17;;
5428;SDS011;2737;52.386;9.980;2022-12-07T07:06:33;17.30;;;8.57;;
5428;SDS011;2737;52.386;9.980;2022-12-07T07:09:01;17.50;;;7.23;;
5428;SDS011;2737;52.386;9.980;2022-12-07T07:11:29;21.23;;;8.97;;
5428;SDS011;2737;52.386;9.980;2022-12-07T07:13:56;24.87;;;9.07;;
5428;SDS011;2737;52.386;9.980;2022-12-07T07:16:27;12.60;;;7.13;;
5428;SDS011;2737;52.386;9.980;2022-12-07T07:18:55;10.13;;;6.60;;
5428;SDS011;2737;52.386;9.980;2022-12-07T07:21:22;11.07;;;5.90;;
5428;SDS011;2737;52.386;9.980;2022-12-07T07:23:54;13.77;;;5.30;;
5428;SDS011;2737;52.386;9.980;2022-12-07T07:26:22;17.47;;;5.67;;
5428;SDS011;2737;52.386;9.980;2022-12-07T07:28:49;15.60;;;6.53;;
5428;SDS011;2737;52.386;9.980;2022-12-07T07:31:16;14.87;;;6.37;;
5428;SDS011;2737;52.386;9.980;2022-12-07T07:33:44;12.50;;;4.97;;
5428;SDS011;2737;52.386;9.980;2022-12-07T07:36:11;15.40;;;7.17;;
5428;SDS011;2737;52.386;9.980;2022-12-07T07:38:38;10.90;;;5.40;;
5428;SDS011;2737;52.386;9.980;2022-12-07T07:41:07;17.50;;;5.60;;
5428;SDS011;2737;52.386;9.980;2022-12-07T07:43:34;12.53;;;4.53;;
5428;SDS011;2737;52.386;9.980;2022-12-07T07:46:01;6.50;;;4.13;;
5428;SDS011;2737;52.386;9.980;2022-12-07T07:48:28;6.30;;;3.90;;
5428;SDS011;2737;52.386;9.980;2022-12-07T07:50:56;6.00;;;3.73;;
5428;SDS011;2737;52.386;9.980;2022-12-07T07:53:24;10.63;;;4.30;;
5428;SDS011;2737;52.386;9.980;2022-12-07T07:55:51;21.07;;;4.83;;
5428;SDS011;2737;52.386;9.980;2022-12-07T07:58:20;10.33;;;4.07;;
5428;SDS011;2737;52.386;9.980;2022-12-07T08:00:48;8.83;;;4.00;;
5428;SDS011;2737;52.386;9.980;2022-12-07T08:03:15;8.20;;;4.40;;
5428;SDS011;2737;52.386;9.980;2022-12-07T08:05:42;15.10;;;4.03;;
5428;SDS011;2737;52.386;9.980;2022-12-07T08:08:09;11.40;;;4.13;;
5428;SDS011;2737;52.386;9.980;2022-12-07T08:10:36;6.23;;;3.73;;
5428;SDS011;2737;52.386;9.980;2022-12-07T08:13:03;9.70;;;4.93;;
5428;SDS011;2737;52.386;9.980;2022-12-07T08:15:42;9.97;;;3.97;;
5428;SDS011;2737;52.386;9.980;2022-12-07T08:18:10;16.73;;;5.60;;
5428;SDS011;2737;52.386;9.980;2022-12-07T08:20:38;17.53;;;4.70;;
5428;SDS011;2737;52.386;9.980;2022-12-07T08:23:06;7.63;;;3.90;;
5428;SDS011;2737;52.386;9.980;2022-12-07T08:25:34;12.00;;;4.70;;
5428;SDS011;2737;52.386;9.980;2022-12-07T08:28:01;9.23;;;4.97;;
5428;SDS011;2737;52.386;9.980;2022-12-07T08:30:29;13.93;;;5.17;;
5428;SDS011;2737;52.386;9.980;2022-12-07T08:32:58;12.53;;;4.20;;
5428;SDS011;2737;52.386;9.980;2022-12-07T08:35:25;8.50;;;4.30;;
5428;SDS011;2737;52.386;9.980;2022-12-07T08:37:52;10.40;;;3.63;;
5428;SDS011;2737;52.386;9.980;2022-12-07T08:40:19;9.00;;;4.30;;
5428;SDS011;2737;52.386;9.980;2022-12-07T08:42:48;14.27;;;4.50;;
5428;SDS011;2737;52.386;9.980;2022-12-07T08:45:16;13.53;;;3.73;;
5428;SDS011;2737;52.386;9.980;2022-12-07T08:47:44;7.57;;;3.10;;
5428;SDS011;2737;52.386;9.980;2022-12-07T08:50:17;7.60;;;3.57;;
5428;SDS011;2737;52.386;9.980;2022-12-07T08:52:44;8.43;;;4.20;;
5428;SDS011;2737;52.386;9.980;2022-12-07T08:55:15;18.13;;;3.90;;
5428;SDS011;2737;52.386;9.980;2022-12-07T08:57:42;9.30;;;3.30;;
5428;SDS011;2737;52.386;9.980;2022-12-07T09:00:10;5.80;;;2.63;;
5428;SDS011;2737;52.386;9.980;2022-12-07T09:02:38;10.07;;;3.27;;
5428;SDS011;2737;52.386;9.980;2022-12-07T09:05:05;6.80;;;3.20;;
5428;SDS011;2737;52.386;9.980;2022-12-07T09:07:34;13.73;;;3.00;;
5428;SDS011;2737;52.386;9.980;2022-12-07T09:10:03;7.60;;;2.63;;
5428;SDS011;2737;52.386;9.980;2022-12-07T09:12:30;2.40;;;1.90;;
5428;SDS011;2737;52.386;9.980;2022-12-07T09:14:57;4.43;;;2.13;;
5428;SDS011;2737;52.386;9.980;2022-12-07T09:17:25;11.33;;;2.87;;
5428;SDS011;2737;52.386;9.980;2022-12-07T09:19:52;5.03;;;2.70;;
5428;SDS011;2737;52.386;9.980;2022-12-07T09:22:19;5.60;;;2.40;;
5428;SDS011;2737;52.386;9.980;2022-12-07T09:24:48;11.93;;;3.50;;
5428;SDS011;2737;52.386;9.980;2022-12-07T09:27:15;7.77;;;3.80;;
5428;SDS011;2737;52.386;9.980;2022-12-07T09:29:42;11.67;;;4.60;;
5428;SDS011;2737;52.386;9.980;2022-12-07T09:32:09;12.90;;;4.43;;
5428;SDS011;2737;52.386;9.980;2022-12-07T09:34:37;11.00;;;6.13;;
5428;SDS011;2737;52.386;9.980;2022-12-07T09:37:04;10.83;;;4.27;;
5428;SDS011;2737;52.386;9.980;2022-12-07T09:39:31;13.20;;;5.43;;
5428;SDS011;2737;52.386;9.980;2022-12-07T09:42:02;15.43;;;5.57;;
5428;SDS011;2737;52.386;9.980;2022-12-07T09:44:30;12.27;;;5.50;;
5428;SDS011;2737;52.386;9.980;2022-12-07T09:46:58;22.20;;;4.60;;
5428;SDS011;2737;52.386;9.980;2022-12-07T09:49:27;12.17;;;4.90;;
5428;SDS011;2737;52.386;9.980;2022-12-07T09:51:59;8.53;;;5.50;;
5428;SDS011;2737;52.386;9.980;2022-12-07T09:54:28;14.80;;;6.73;;
5428;SDS011;2737;52.386;9.980;2022-12-07T09:56:56;15.40;;;6.53;;
5428;SDS011;2737;52.386;9.980;2022-12-07T09:59:25;19.43;;;6.80;;
5428;SDS011;2737;52.386;9.980;2022-12-07T10:01:53;17.37;;;4.93;;
5428;SDS011;2737;52.386;9.980;2022-12-07T10:04:21;18.73;;;7.20;;
5428;SDS011;2737;52.386;9.980;2022-12-07T10:06:50;12.53;;;6.20;;
5428;SDS011;2737;52.386;9.980;2022-12-07T10:09:18;12.37;;;5.97;;
5428;SDS011;2737;52.386;9.980;2022-12-07T10:12:03;9.60;;;5.60;;
5428;SDS011;2737;52.386;9.980;2022-12-07T10:14:34;6.60;;;3.87;;
5428;SDS011;2737;52.386;9.980;2022-12-07T10:17:05;8.30;;;3.70;;
5428;SDS011;2737;52.386;9.980;2022-12-07T10:22:53;6.13;;;3.80;;
5428;SDS011;2737;52.386;9.980;2022-12-07T10:25:22;11.97;;;3.87;;
5428;SDS011;2737;52.386;9.980;2022-12-07T10:27:57;7.30;;;4.33;;
5428;SDS011;2737;52.386;9.980;2022-12-07T10:30:27;8.20;;;4.33;;
5428;SDS011;2737;52.386;9.980;2022-12-07T10:32:54;10.07;;;5.10;;
5428;SDS011;2737;52.386;9.980;2022-12-07T10:35:23;12.30;;;4.20;;
5428;SDS011;2737;52.386;9.980;2022-12-07T10:37:51;6.87;;;3.27;;
5428;SDS011;2737;52.386;9.980;2022-12-07T10:40:27;6.17;;;3.37;;
5428;SDS011;2737;52.386;9.980;2022-12-07T10:43:12;5.63;;;3.77;;
5428;SDS011;2737;52.386;9.980;2022-12-07T10:45:56;8.80;;;3.80;;
5428;SDS011;2737;52.386;9.980;2022-12-07T10:48:52;8.67;;;4.40;;
5428;SDS011;2737;52.386;9.980;2022-12-07T10:51:30;9.43;;;4.67;;
5428;SDS011;2737;52.386;9.980;2022-12-07T10:54:08;7.00;;;4.23;;
5428;SDS011;2737;52.386;9.980;2022-12-07T10:59:37;5.40;;;3.20;;
5428;SDS011;2737;52.386;9.980;2022-12-07T11:02:23;5.40;;;2.90;;
5428;SDS011;2737;52.386;9.980;2022-12-07T11:05:03;7.57;;;3.00;;
5428;SDS011;2737;52.386;9.980;2022-12-07T11:07:43;7.87;;;3.63;;
5428;SDS011;2737;52.386;9.980;2022-12-07T11:10:17;15.47;;;4.40;;
5428;SDS011;2737;52.386;9.980;2022-12-07T11:12:57;11.33;;;3.97;;
5428;SDS011;2737;52.386;9.980;2022-12-07T11:15:39;7.47;;;3.43;;
5428;SDS011;2737;52.386;9.980;2022-12-07T11:18:22;5.63;;;3.03;;
5428;SDS011;2737;52.386;9.980;2022-12-07T11:20:55;5.37;;;2.60;;
5428;SDS011;2737;52.386;9.980;2022-12-07T11:23:34;6.07;;;2.47;;
5428;SDS011;2737;52.386;9.980;2022-12-07T11:26:13;6.77;;;2.43;;
5428;SDS011;2737;52.386;9.980;2022-12-07T11:28:56;6.90;;;2.33;;
5428;SDS011;2737;52.386;9.980;2022-12-07T11:31:33;4.77;;;1.87;;
5428;SDS011;2737;52.386;9.980;2022-12-07T11:34:15;5.37;;;2.33;;
5428;SDS011;2737;52.386;9.980;2022-12-07T11:36:49;1.90;;;1.13;;
5428;SDS011;2737;52.386;9.980;2022-12-07T11:39:22;5.63;;;1.90;;
5428;SDS011;2737;52.386;9.980;2022-12-07T11:41:55;1.90;;;1.10;;
5428;SDS011;2737;52.386;9.980;2022-12-07T11:44:29;2.93;;;1.40;;
5428;SDS011;2737;52.386;9.980;2022-12-07T11:47:01;5.27;;;1.67;;
5428;SDS011;2737;52.386;9.980;2022-12-07T11:49:40;3.73;;;1.20;;
5428;SDS011;2737;52.386;9.980;2022-12-07T11:52:13;4.70;;;1.93;;
5428;SDS011;2737;52.386;9.980;2022-12-07T11:54:47;4.07;;;1.23;;
5428;SDS011;2737;52.386;9.980;2022-12-07T11:57:20;2.80;;;1.27;;
5428;SDS011;2737;52.386;9.980;2022-12-07T11:59:53;3.93;;;1.40;;
5428;SDS011;2737;52.386;9.980;2022-12-07T12:02:26;4.33;;;2.40;;
5428;SDS011;2737;52.386;9.980;2022-12-07T12:05:05;1.17;;;0.80;;
5428;SDS011;2737;52.386;9.980;2022-12-07T12:07:41;3.93;;;1.10;;
5428;SDS011;2737;52.386;9.980;2022-12-07T12:10:15;2.93;;;1.20;;
5428;SDS011;2737;52.386;9.980;2022-12-07T12:12:50;5.70;;;2.33;;
5428;SDS011;2737;52.386;9.980;2022-12-07T12:15:36;4.53;;;1.20;;
5428;SDS011;2737;52.386;9.980;2022-12-07T12:18:25;5.03;;;1.63;;
5428;SDS011;2737;52.386;9.980;2022-12-07T12:21:06;4.13;;;1.67;;
5428;SDS011;2737;52.386;9.980;2022-12-07T12:23:37;3.93;;;2.13;;
5428;SDS011;2737;52.386;9.980;2022-12-07T12:26:13;2.43;;;2.00;;
5428;SDS011;2737;52.386;9.980;2022-12-07T12:28:49;5.57;;;2.20;;
5428;SDS011;2737;52.386;9.980;2022-12-07T12:31:36;9.07;;;2.80;;
5428;SDS011;2737;52.386;9.980;2022-12-07T12:37:08;6.40;;;3.03;;
5428;SDS011;2737;52.386;9.980;2022-12-07T12:42:59;3.03;;;2.33;;
5428;SDS011;2737;52.386;9.980;2022-12-07T12:45:26;8.20;;;3.37;;
5428;SDS011;2737;52.386;9.980;2022-12-07T12:47:56;5.53;;;2.70;;
5428;SDS011;2737;52.386;9.980;2022-12-07T12:50:25;9.10;;;3.50;;
5428;SDS011;2737;52.386;9.980;2022-12-07T13:01:55;5.37;;;3.80;;
5428;SDS011;2737;52.386;9.980;2022-12-07T13:10:27;7.57;;;2.10;;
5428;SDS011;2737;52.386;9.980;2022-12-07T13:15:56;7.83;;;2.87;;
5428;SDS011;2737;52.386;9.980;2022-12-07T13:25:21;9.97;;;2.80;;
5428;SDS011;2737;52.386;9.980;2022-12-07T13:27:58;4.73;;;1.90;;
5428;SDS011;2737;52.386;9.980;2022-12-07T13:30:32;9.47;;;2.33;;
5428;SDS011;2737;52.386;9.980;2022-12-07T13:33:10;11.40;;;2.50;;
5428;SDS011;2737;52.386;9.980;2022-12-07T13:35:38;6.80;;;2.60;;
5428;SDS011;2737;52.386;9.980;2022-12-07T13:38:22;4.23;;;2.00;;
5428;SDS011;2737;52.386;9.980;2022-12-07T13:41:03;9.73;;;2.27;;
5428;SDS011;2737;52.386;9.980;2022-12-07T13:43:49;14.93;;;2.40;;
5428;SDS011;2737;52.386;9.980;2022-12-07T13:46:26;6.50;;;2.87;;
5428;SDS011;2737;52.386;9.980;2022-12-07T13:49:01;6.80;;;2.80;;
5428;SDS011;2737;52.386;9.980;2022-12-07T13:51:28;4.53;;;2.80;;
5428;SDS011;2737;52.386;9.980;2022-12-07T13:54:08;5.33;;;3.00;;
5428;SDS011;2737;52.386;9.980;2022-12-07T13:56:38;7.73;;;2.00;;
5428;SDS011;2737;52.386;9.980;2022-12-07T13:59:08;8.20;;;3.03;;
5428;SDS011;2737;52.386;9.980;2022-12-07T14:01:40;4.00;;;1.90;;
5428;SDS011;2737;52.386;9.980;2022-12-07T14:04:18;16.70;;;2.57;;
5428;SDS011;2737;52.386;9.980;2022-12-07T14:06:53;6.73;;;2.83;;
5428;SDS011;2737;52.386;9.980;2022-12-07T14:09:21;13.00;;;2.60;;
5428;SDS011;2737;52.386;9.980;2022-12-07T14:11:51;9.13;;;2.47;;
5428;SDS011;2737;52.386;9.980;2022-12-07T14:14:21;10.53;;;2.40;;
5428;SDS011;2737;52.386;9.980;2022-12-07T14:16:56;6.90;;;1.60;;
5428;SDS011;2737;52.386;9.980;2022-12-07T14:19:41;11.50;;;2.37;;
5428;SDS011;2737;52.386;9.980;2022-12-07T14:22:21;7.30;;;1.80;;
5428;SDS011;2737;52.386;9.980;2022-12-07T14:24:50;5.93;;;1.60;;
5428;SDS011;2737;52.386;9.980;2022-12-07T14:27:30;3.90;;;1.53;;
5428;SDS011;2737;52.386;9.980;2022-12-07T14:29:59;7.03;;;1.37;;
5428;SDS011;2737;52.386;9.980;2022-12-07T14:32:27;11.93;;;1.77;;
5428;SDS011;2737;52.386;9.980;2022-12-07T14:34:56;6.73;;;1.57;;
5428;SDS011;2737;52.386;9.980;2022-12-07T14:37:25;8.00;;;1.80;;
5428;SDS011;2737;52.386;9.980;2022-12-07T14:39:53;3.70;;;1.53;;
5428;SDS011;2737;52.386;9.980;2022-12-07T14:42:20;14.40;;;3.03;;
5428;SDS011;2737;52.386;9.980;2022-12-07T14:44:52;12.07;;;1.93;;
5428;SDS011;2737;52.386;9.980;2022-12-07T14:47:19;4.80;;;1.70;;
5428;SDS011;2737;52.386;9.980;2022-12-07T14:49:46;8.00;;;1.83;;
5428;SDS011;2737;52.386;9.980;2022-12-07T14:52:14;10.07;;;1.47;;
5428;SDS011;2737;52.386;9.980;2022-12-07T14:54:44;5.60;;;1.90;;
5428;SDS011;2737;52.386;9.980;2022-12-07T14:57:11;8.67;;;1.97;;
5428;SDS011;2737;52.386;9.980;2022-12-07T14:59:38;5.47;;;1.83;;
5428;SDS011;2737;52.386;9.980;2022-12-07T15:02:08;10.13;;;4.20;;
5428;SDS011;2737;52.386;9.980;2022-12-07T15:04:38;8.03;;;1.80;;
5428;SDS011;2737;52.386;9.980;2022-12-07T15:07:08;8.73;;;1.70;;
5428;SDS011;2737;52.386;9.980;2022-12-07T15:09:42;4.97;;;1.43;;
5428;SDS011;2737;52.386;9.980;2022-12-07T15:12:09;5.10;;;2.10;;
5428;SDS011;2737;52.386;9.980;2022-12-07T15:14:36;5.40;;;2.63;;
5428;SDS011;2737;52.386;9.980;2022-12-07T15:17:03;7.23;;;2.03;;
5428;SDS011;2737;52.386;9.980;2022-12-07T15:19:31;13.90;;;3.37;;
5428;SDS011;2737;52.386;9.980;2022-12-07T15:21:58;5.90;;;2.20;;
5428;SDS011;2737;52.386;9.980;2022-12-07T15:24:26;11.90;;;2.10;;
5428;SDS011;2737;52.386;9.980;2022-12-07T15:26:53;10.13;;;3.47;;
5428;SDS011;2737;52.386;9.980;2022-12-07T15:29:20;4.17;;;1.80;;
5428;SDS011;2737;52.386;9.980;2022-12-07T15:31:48;7.43;;;1.67;;
5428;SDS011;2737;52.386;9.980;2022-12-07T15:34:15;6.37;;;1.63;;
5428;SDS011;2737;52.386;9.980;2022-12-07T15:36:43;2.80;;;1.77;;
5428;SDS011;2737;52.386;9.980;2022-12-07T15:39:10;9.50;;;2.27;;
5428;SDS011;2737;52.386;9.980;2022-12-07T15:41:38;6.50;;;1.90;;
5428;SDS011;2737;52.386;9.980;2022-12-07T15:44:05;1.20;;;0.80;;
5428;SDS011;2737;52.386;9.980;2022-12-07T15:46:49;3.60;;;1.50;;
5428;SDS011;2737;52.386;9.980;2022-12-07T15:49:17;2.33;;;1.30;;
5428;SDS011;2737;52.386;9.980;2022-12-07T15:51:46;2.47;;;1.17;;
5428;SDS011;2737;52.386;9.980;2022-12-07T15:54:16;3.00;;;0.97;;
5428;SDS011;2737;52.386;9.980;2022-12-07T15:56:45;3.83;;;1.23;;
5428;SDS011;2737;52.386;9.980;2022-12-07T15:59:12;2.67;;;1.50;;